Date StartTime U_cm/s V_cm/s W_cm/s Ustd_cm/s Vstd_cm/s Wstd_cm/s Uvar_(cm/s)^2 Vvar_(cm/s)^2 Wvar_(cm/s)^2 KE_(m/s)^2 TurbulentKE_(m/s)^2 HorizWindSpeed_cm/s FrictionSpeec_cm/s DragCoef SpeedOfSound_m/s SonicTemperature_C Pressure_mb 
06/03/2014  19:33:00     -273.389      -68.457        3.065      157.291      110.609       71.552    24740.500    12234.421     5119.715        6.075        2.105      281.829       74.050        0.069      346.351       24.533      847.032
06/03/2014  19:34:00     -237.956     -122.027        0.195      147.338      134.280       87.294    21708.556    18031.215     7620.310        5.942        2.368      267.420       74.143        0.077      346.355       24.539      857.394
06/03/2014  19:35:00     -341.841      -62.484      -15.809      245.321      139.080       84.723    60182.608    19343.168     7177.990       10.383        4.335      347.505      121.329        0.122      346.306       24.456      857.399
06/03/2014  19:36:00     -365.479     -234.472      -11.805      225.536      164.906      104.186    50866.303    27194.124    10854.723       13.878        4.446      434.226      121.323        0.078      346.275       24.401      857.457
06/03/2014  19:37:00     -294.040     -103.296      -11.282      183.417      111.366       77.665    33641.702    12402.478     6031.896        7.465        2.604      311.656       94.352        0.092      346.262       24.378      857.443
06/03/2014  19:38:00     -192.392      -99.417        9.708      197.534      124.164       81.011    39019.745    15416.763     6562.726        5.398        3.050      216.560       97.616        0.203      346.255       24.367      857.465
06/03/2014  19:39:00     -411.830     -174.036      -23.144      239.235      150.680       75.735    57233.284    22704.408     5735.800       14.303        4.284      447.093       86.994        0.038      346.211       24.290      857.409
06/03/2014  19:40:00     -407.844     -116.940      -25.859      208.072      171.561       92.261    43294.003    29433.234     8512.015       13.094        4.062      424.278      100.694        0.056      346.213       24.295      857.424
06/03/2014  19:41:00     -534.364     -226.533      -42.131      228.186      178.304      106.607    52068.776    31792.255    11365.079       21.691        4.761      580.398      100.454        0.030      346.164       24.212      857.405
06/03/2014  19:42:00     -395.947      -22.074      -34.487      167.101      152.571       71.457    27922.653    23277.819     5106.084       10.737        2.815      396.562       43.656        0.012      346.191       24.258      857.429
06/03/2014  19:43:00     -529.413     -100.006      -14.363      244.688      142.158       97.731    59872.176    20208.915     9551.338       19.004        4.482      538.776      109.004        0.041      346.175       24.231      857.427
06/03/2014  19:44:00     -262.106      -57.795       15.916      152.797      127.636       80.100    23346.945    16290.983     6415.997        5.916        2.303      268.403       84.988        0.100      346.171       24.222      857.421
06/03/2014  19:45:00     -247.998     -165.660        8.163      136.495      125.767       63.899    18630.927    15817.262     4083.125        6.376        1.927      298.239       68.114        0.052      346.155       24.195      857.442
06/03/2014  19:46:00     -323.545     -223.400      -15.581      200.083      152.826       94.032    40033.284    23355.712     8841.959       11.352        3.612      393.178       95.061        0.058      346.127       24.147      857.422
06/03/2014  19:47:00     -410.411     -173.698      -11.071      183.688      175.195       89.846    33741.270    30693.296     8072.239       13.560        3.625      445.655       90.778        0.041      346.094       24.090      857.432
06/03/2014  19:48:00     -362.304      -77.579       -0.128      233.366      128.196       83.121    54459.907    16434.294     6909.021       10.753        3.890      370.517       97.905        0.070      346.081       24.069      857.435
06/03/2014  19:49:00     -230.305      -60.654        3.171      165.593      124.356       77.360    27420.996    15464.423     5984.595        5.279        2.444      238.158       87.173        0.134      346.076       24.059      857.449
06/03/2014  19:50:00     -234.354     -139.071       -0.228      171.225      157.010       84.720    29317.962    24652.009     7177.537        6.769        3.057      272.511      108.873        0.160      346.038       23.994      857.460
06/03/2014  19:51:00     -218.458      -67.418        1.077      135.219      112.355       64.664    18284.260    12623.714     4181.456        4.367        1.754      228.624       63.941        0.078      346.019       23.962      857.481
06/03/2014  19:52:00     -201.328     -114.669       -1.231      119.466      100.540       58.712    14272.126    10108.379     3447.153        4.075        1.391      231.694       59.644        0.066      346.044       24.005      857.495
06/03/2014  19:53:00     -355.210     -167.441      -16.284      236.473      190.870       97.879    55919.346    36431.212     9580.301       12.818        5.097      392.696      115.521        0.087      345.984       23.901      857.476
06/03/2014  19:54:00     -278.395     -111.777        2.052      172.839      135.148       75.893    29873.462    18265.047     5759.776        7.194        2.695      299.996       76.797        0.066      345.981       23.898      857.497
06/03/2014  19:55:00     -331.871      -86.912       -3.117      181.937      151.932       81.581    33101.219    23083.466     6655.515        9.026        3.142      343.063       92.056        0.072      345.935       23.820      857.519
06/03/2014  19:56:00     -367.491     -107.162      -14.475      217.465      144.024       90.448    47291.035    20742.936     8180.825       11.146        3.811      382.797      109.536        0.082      345.933       23.814      857.516
06/03/2014  19:57:00     -247.508     -114.452       13.058      222.640      123.862       77.669    49568.679    15341.729     6032.487        7.272        3.547      272.690       96.643        0.126      345.909       23.773      857.517
06/03/2014  19:58:00     -384.127      -39.077      -12.863      182.194      133.169       76.092    33194.477    17733.965     5789.975       10.297        2.836      386.109       91.182        0.056      345.875       23.715      857.526
06/03/2014  19:59:00     -281.531     -111.648      -10.894      141.653      133.407       66.706    20065.557    17797.447     4449.662        6.707        2.116      302.861       79.754        0.069      345.864       23.697      857.545
06/03/2014  20:00:00     -215.123        0.142       11.356      132.180       90.621       68.798    17471.668     8212.161     4733.123        3.841        1.521      215.123       68.654        0.102      345.883       23.728      857.553
06/03/2014  20:01:00     -235.345      -83.340        8.646      132.515      152.565       75.035    17560.114    23275.993     5630.260        5.443        2.323      249.665       77.120        0.095      345.801       23.587      857.573
06/03/2014  20:02:00     -306.716      -70.327      -15.057      104.480       85.162       55.311    10916.153     7252.482     3059.312        6.023        1.061      314.676       55.067        0.031      345.813       23.608      857.573
06/03/2014  20:03:00     -227.603      -76.252       -1.977      131.609       94.631       55.203    17320.874     8955.075     3047.323        4.347        1.466      240.037       52.195        0.047      345.813       23.608      857.577
06/03/2014  20:04:00     -378.996      -68.892       -0.336      175.603      144.470       73.122    30836.317    20871.514     5346.772       10.271        2.853      385.207       79.192        0.042      345.817       23.615      857.578
06/03/2014  20:05:00     -246.572      -62.423        5.694      147.139      114.841       68.058    21649.978    13188.547     4631.935        5.209        1.974      254.351       66.654        0.069      345.771       23.537      857.583
06/03/2014  20:06:00     -272.196      -96.566       -6.559      119.426      102.685       53.773    14262.533    10544.178     2891.576        5.557        1.385      288.818       52.025        0.032      345.749       23.499      857.583
06/03/2014  20:07:00     -308.103      -63.570      -16.010      120.360      116.310       59.626    14486.624    13528.087     3555.210        6.539        1.578      314.593       62.766        0.040      345.720       23.449      857.577
06/03/2014  20:08:00     -240.062      -20.483      -14.518      123.314      102.145       57.411    15206.447    10433.594     3295.983        4.359        1.447      240.935       58.324        0.059      345.700       23.416      857.560
06/03/2014  20:09:00     -287.087      -32.231      -16.283      113.707      134.704       67.116    12929.333    18145.167     4504.597        5.964        1.779      288.890       53.636        0.034      345.667       23.358      857.573
06/03/2014  20:10:00     -278.667       25.385      -14.799      154.262      123.836       60.315    23796.787    15335.280     3637.922        6.064        2.138      279.821       60.449        0.047      345.663       23.352      857.581
06/03/2014  20:11:00     -303.475      -54.273      -12.338      155.650      112.902       62.347    24226.990    12746.782     3887.092        6.802        2.043      308.290       58.943        0.037      345.640       23.311      857.599
06/03/2014  20:12:00     -294.675      -41.732      -11.319      168.584       93.488       68.996    28420.722     8740.041     4760.380        6.530        2.096      297.616       70.896        0.057      345.621       23.280      857.617
06/03/2014  20:13:00     -411.338      -58.194      -25.913      171.650      118.229       70.091    29463.691    13978.051     4912.786       11.080        2.418      415.434       79.588        0.037      345.629       23.292      857.626
06/03/2014  20:14:00     -378.342      -39.143      -34.618      119.561      114.357       66.238    14294.878    13077.581     4387.539        8.881        1.588      380.361       68.385        0.032      345.591       23.226      857.637
06/03/2014  20:15:00     -357.202      -34.598      -19.182      131.171       90.600       52.253    17205.957     8208.410     2730.418        7.865        1.407      358.874       52.464        0.021      345.546       23.151      857.634
06/03/2014  20:16:00     -386.735      -65.889      -28.255      144.210       94.093       66.016    20796.509     8853.464     4358.146        9.435        1.700      392.307       73.987        0.036      345.549       23.157      857.621
06/03/2014  20:17:00     -282.650      -77.275       -3.771      122.052      118.276       58.987    14896.588    13989.234     3479.465        5.911        1.618      293.023       57.204        0.038      345.500       23.072      857.615
06/03/2014  20:18:00     -324.085      -50.141      -13.232      149.222      119.609       58.393    22267.297    14306.352     3409.753        7.384        1.999      327.941       66.660        0.041      345.471       23.021      857.627
06/03/2014  20:19:00     -345.136      -99.972       -7.172      132.390       77.440       65.259    17527.027     5996.931     4258.719        7.847        1.389      359.323       68.864        0.037      345.458       22.998      857.632
06/03/2014  20:20:00     -342.320      -58.425      -22.054      103.210       87.062       45.157    10652.383     7579.717     2039.197        7.067        1.014      347.269       38.318        0.012      345.447       22.980      857.654
06/03/2014  20:21:00     -314.895      -73.795      -14.720       96.118       99.812       51.559     9238.586     9962.365     2658.321        6.334        1.093      323.426       47.859        0.022      345.442       22.970      857.674
06/03/2014  20:22:00     -209.797      -10.604      -19.774       81.662       64.733       47.767     6668.656     4190.328     2281.727        2.883        0.657      210.065       47.695        0.052      345.446       22.980      857.690
06/03/2014  20:23:00     -208.350      -22.420       -9.799      121.534       79.343       53.593    14770.536     6295.359     2872.211        3.397        1.197      209.552       55.638        0.070      345.359       22.830      857.700
06/03/2014  20:24:00     -313.444      -41.225       -9.708      147.178      113.167       66.393    21661.394    12806.696     4408.023        6.945        1.944      316.144       68.371        0.047      345.388       22.880      857.695
06/03/2014  20:25:00     -300.177      -75.935       -4.667      139.176      109.229       60.503    19369.900    11931.075     3660.615        6.542        1.748      309.632       53.088        0.029      345.361       22.833      857.700
06/03/2014  20:26:00     -345.680      -87.884      -13.460      114.707       88.291       48.836    13157.646     7795.341     2384.987        7.536        1.167      356.677       46.075        0.017      345.353       22.818      857.717
06/03/2014  20:27:00     -295.821       -6.252      -21.027      121.756      114.478       69.616    14824.561    13105.267     4846.351        6.038        1.639      295.887       59.301        0.040      345.352       22.816      857.725
06/03/2014  20:28:00     -257.131      -37.126       -8.845      108.015       95.825       56.732    11667.278     9182.373     3218.508        4.582        1.203      259.798       53.033        0.042      345.330       22.779      857.747
06/03/2014  20:29:00     -298.875      -76.316       -7.439      127.310      123.947       63.147    16207.886    15362.890     3987.588        6.537        1.778      308.464       65.292        0.045      345.332       22.782      857.756
06/03/2014  20:30:00     -430.388      -33.726      -31.667      100.306      127.832       58.922    10061.357    16340.936     3471.751       10.862        1.494      431.708       42.053        0.009      345.345       22.803      857.761
06/03/2014  20:31:00     -342.920     -134.497      -22.819      143.544      116.675       67.132    20604.925    13613.146     4506.704        8.746        1.936      368.353       50.264        0.019      345.342       22.799      857.748
06/03/2014  20:32:00     -412.992      -34.025      -37.104      107.131       92.082       61.270    11476.980     8479.141     3753.970        9.840        1.186      414.392       58.805        0.020      345.327       22.772      857.763
06/03/2014  20:33:00     -185.794      -65.154      -14.563      133.115      100.078       67.138    17719.703    10015.600     4507.507        3.560        1.612      196.887       68.615        0.121      345.265       22.668      857.758
06/03/2014  20:34:00     -221.591      -75.403      -15.538      123.763       81.180       66.244    15317.264     6590.192     4388.245        4.066        1.315      234.068       72.281        0.095      345.269       22.675      857.786
06/03/2014  20:35:00     -317.823      -40.686      -18.878      111.679      113.708       55.331    12472.258    12929.587     3061.495        6.574        1.423      320.416       55.217        0.030      345.254       22.650      857.795
06/03/2014  20:36:00     -345.834       -3.754      -17.220      118.616       87.418       62.913    14069.655     7641.887     3958.025        7.279        1.283      345.855       64.493        0.035      345.235       22.615      857.801
06/03/2014  20:37:00     -407.057      -63.374      -17.458      144.368      120.194       64.232    20842.021    14446.681     4125.756       10.471        1.971      411.961       69.223        0.028      345.224       22.598      857.816
06/03/2014  20:38:00     -235.482      -83.796       -1.668      117.036       82.009       50.743    13697.444     6725.496     2574.882        4.273        1.150      249.947       55.670        0.050      345.143       22.460      857.820
06/03/2014  20:39:00     -275.715      -42.406       -7.740      122.364      105.315       59.591    14972.898    11091.181     3551.037        5.374        1.481      278.957       53.369        0.037      345.175       22.515      857.823
06/03/2014  20:40:00     -238.668      -95.946       -9.037       86.605       85.287       45.415     7500.405     7273.840     2062.507        4.154        0.842      257.231       38.261        0.022      345.144       22.461      857.821
06/03/2014  20:41:00     -379.653      -75.649      -33.090      101.717       96.991       59.948    10346.408     9407.287     3593.706        8.715        1.167      387.117       53.606        0.019      345.163       22.494      857.830
06/03/2014  20:42:00     -289.351      -73.564      -20.108      121.861       76.335       52.692    14850.169     5826.957     2776.482        5.649        1.173      298.556       33.926        0.013      345.116       22.413      857.826
06/03/2014  20:43:00     -303.354      -81.315      -14.570       87.420      104.875       53.527     7642.215    10998.811     2865.127        6.017        1.075      314.064       39.236        0.016      345.062       22.320      857.837
06/03/2014  20:44:00     -267.909     -107.181      -14.418      106.381       74.124       58.528    11316.870     5494.349     3425.530        5.185        1.012      288.553       64.173        0.049      345.042       22.288      857.849
06/03/2014  20:45:00     -367.298      -46.694      -25.467      138.791       95.772       65.549    19262.986     9172.225     4296.631        8.523        1.637      370.254       68.674        0.034      345.034       22.273      857.861
06/03/2014  20:46:00     -396.818      -72.659      -32.478      102.802      112.491       66.833    10568.160    12654.159     4466.713        9.574        1.384      403.416       56.604        0.020      345.045       22.293      857.879
06/03/2014  20:47:00     -350.274      -92.353      -24.616       94.725       98.989       55.322     8972.795     9798.906     3060.533        7.683        1.092      362.245       49.614        0.019      345.022       22.254      857.879
06/03/2014  20:48:00     -435.779       -4.551      -39.676      127.676      124.723       69.045    16301.065    15555.780     4767.207       11.405        1.831      435.803       69.436        0.025      345.013       22.238      857.887
06/03/2014  20:49:00     -334.259      -34.579      -16.999      160.505       72.170       57.918    25761.759     5208.475     3354.549        7.376        1.716      336.042       75.083        0.050      344.975       22.172      857.895
06/03/2014  20:50:00     -321.522      -36.377       -4.261      181.747       86.521       70.756    33031.869     7485.883     5006.377        7.511        2.276      323.573       88.785        0.075      344.964       22.153      857.914
06/03/2014  20:51:00     -441.325      -37.915      -53.612       95.504      116.473       54.984     9121.036    13566.050     3023.275       11.239        1.286      442.950       43.666        0.010      344.996       22.208      857.919
06/03/2014  20:52:00     -409.566      -69.620      -27.487      137.680      108.688       67.521    18955.865    11813.054     4559.148       10.433        1.766      415.441       69.690        0.028      345.023       22.254      857.927
06/03/2014  20:53:00     -351.959      -22.904      -30.534      112.102      108.389       51.782    12566.904    11748.268     2681.380        7.616        1.350      352.704       53.129        0.023      345.042       22.287      857.933
06/03/2014  20:54:00     -242.905     -108.211      -10.989      125.890       87.220       54.261    15848.225     7607.309     2944.227        4.861        1.320      265.919       45.403        0.029      344.960       22.147      857.945
06/03/2014  20:55:00     -287.380      -61.324      -19.228      100.022       92.307       47.668    10004.350     8520.638     2272.240        5.375        1.040      293.850       46.216        0.025      344.941       22.113      857.967
06/03/2014  20:56:00     -369.532       29.357      -48.471      120.595       96.359       59.581    14543.226     9285.136     3549.896        8.357        1.369      370.696       54.353        0.021      344.984       22.187      857.973
06/03/2014  20:57:00     -259.789     -103.134       -6.742       77.499       82.135       48.722     6006.083     6746.218     2373.824        4.665        0.756      279.512       30.931        0.012      344.937       22.104      857.982
06/03/2014  20:58:00     -244.425      -44.557      -10.232      111.042       95.604       47.834    12330.383     9140.202     2288.085        4.279        1.188      248.453       49.421        0.040      344.886       22.021      857.996
06/03/2014  20:59:00     -251.659      -75.405       -0.645      107.897       97.453       56.054    11641.855     9497.062     3142.051        4.664        1.214      262.713       57.370        0.048      344.885       22.017      858.008
06/03/2014  21:00:00     -352.243      -96.745      -19.483      141.321      117.981       65.090    19971.593    13919.468     4236.684        8.596        1.906      365.287       67.733        0.034      344.912       22.064      858.026
06/03/2014  21:01:00     -364.556        4.664      -19.430      163.372      115.008       55.006    26690.531    13226.897     3025.693        8.811        2.147      364.586       67.428        0.034      344.905       22.053      858.037
06/03/2014  21:02:00     -345.750      -32.860      -33.394       97.035      108.874       46.949     9415.820    11853.503     2204.238        7.260        1.174      347.308       34.369        0.010      344.895       22.034      858.053
06/03/2014  21:03:00     -288.417       -7.227      -23.414      105.226       75.376       52.742    11072.454     5681.530     2781.735        5.166        0.977      288.507       56.569        0.038      344.873       21.996      858.085
06/03/2014  21:04:00     -273.351     -133.544      -23.880      120.744       94.981       50.742    14579.045     9021.429     2574.713        5.964        1.309      304.228       49.786        0.027      344.881       22.012      858.101
06/03/2014  21:05:00     -283.607     -121.573      -21.507       91.321       85.734       48.219     8339.562     7350.363     2325.053        5.684        0.901      308.566       43.049        0.019      344.877       22.003      858.120
06/03/2014  21:06:00     -318.039      -58.690      -26.317      126.275       88.209       54.089    15945.476     7780.819     2925.575        6.596        1.333      323.409       55.945        0.030      344.897       22.039      858.161
06/03/2014  21:07:00     -293.131      -45.866      -16.385      101.292       97.526       54.772    10260.166     9511.346     2999.959        5.553        1.139      296.698       56.037        0.036      344.866       21.984      858.205
06/03/2014  21:08:00     -324.227      -20.672      -26.848      100.572      100.487       49.583    10114.751    10097.580     2458.496        6.447        1.134      324.886       44.590        0.019      344.901       22.046      858.244
06/03/2014  21:09:00     -356.351      -17.613      -29.416      153.509      127.321       64.135    23564.971    16210.729     4113.285        8.602        2.194      356.786       71.913        0.041      344.896       22.036      858.280
06/03/2014  21:10:00     -269.677     -127.205       -5.281      172.334       98.651       63.987    29698.912     9731.966     4094.322        6.622        2.176      298.173       83.153        0.078      344.890       22.028      858.315
06/03/2014  21:11:00     -216.232      -32.299       -2.111       76.789       67.324       41.209     5896.512     4532.484     1698.152        2.996        0.606      218.631       33.663        0.024      344.858       21.971      858.362
06/03/2014  21:12:00     -190.164      -10.702       -6.803       76.117       57.597       33.130     5793.822     3317.430     1097.599        2.326        0.510      190.465       37.804        0.039      344.824       21.915      858.407
06/03/2014  21:13:00     -220.699       20.269      -17.385      117.451       75.043       53.389    13794.742     5631.405     2850.357        3.584        1.114      221.628       48.832        0.049      344.757       21.799      858.424
06/03/2014  21:14:00      -74.040      -27.347        4.901       73.411       43.095       37.027     5389.159     1857.186     1371.015        0.743        0.431       78.929       38.431        0.237      344.696       21.697      858.456
06/03/2014  21:15:00     -179.126      -54.194      -12.984       80.635       70.369       40.127     6501.939     4951.847     1610.164        2.413        0.653      187.145       32.738        0.031      344.654       21.625      858.482
06/03/2014  21:16:00     -166.771      -45.401       -8.753       58.782       46.542       36.374     3455.366     2166.121     1323.038        1.845        0.347      172.840       24.276        0.020      344.659       21.632      858.494
06/03/2014  21:17:00     -216.202      -53.829      -25.057       51.954       59.856       31.329     2699.173     3582.714      981.525        2.876        0.363      222.803       17.305        0.006      344.663       21.639      858.524
06/03/2014  21:18:00     -180.060      -36.831      -12.869       69.139      113.190       48.915     4780.200    12811.948     2392.659        2.696        0.999      183.789       39.322        0.046      344.613       21.554      858.547
06/03/2014  21:19:00     -277.404      -29.703      -21.426       67.254       80.242       42.894     4523.127     6438.828     1839.885        4.555        0.640      278.990       35.703        0.016      344.675       21.656      858.570
06/03/2014  21:20:00     -276.541      -15.775      -13.695      108.568       60.725       49.360    11786.904     3687.543     2436.412        4.741        0.896      276.991       54.557        0.039      344.651       21.616      858.609
06/03/2014  21:21:00     -221.588      -49.958      -12.844       70.830       66.886       44.056     5016.881     4473.784     1940.948        3.159        0.572      227.150       33.448        0.022      344.650       21.616      858.634
06/03/2014  21:22:00     -246.244      -44.159      -16.219      133.963       97.343       49.252    17946.057     9475.606     2425.748        4.634        1.492      250.172       56.597        0.051      344.705       21.710      858.663
06/03/2014  21:23:00     -267.819      -41.969      -19.278      129.834       95.755       53.450    16856.816     9168.988     2856.882        5.137        1.444      271.088       62.326        0.053      344.734       21.759      858.683
06/03/2014  21:24:00     -309.620      -53.133      -20.258      128.810      101.542       53.913    16591.980    10310.807     2906.575        6.445        1.490      314.146       51.019        0.026      344.723       21.741      858.709
06/03/2014  21:25:00     -286.490      -49.218      -22.583      138.078       94.594       62.246    19065.617     8947.935     3874.522        5.844        1.594      290.687       65.655        0.051      344.716       21.728      858.719
06/03/2014  21:26:00     -407.535      -22.833      -26.213      119.088      112.311       62.407    14181.924    12613.764     3894.656        9.899        1.535      408.174       39.059        0.009      344.778       21.835      858.743
06/03/2014  21:27:00     -331.063      -82.218      -21.800      148.529      155.693       75.086    22060.742    24240.363     5637.898        8.438        2.597      341.119       76.642        0.050      344.766       21.813      858.737
06/03/2014  21:28:00     -225.004     -111.669       16.874      218.827      133.084       84.219    47885.118    17711.375     7092.835        6.802        3.634      251.191      115.035        0.210      344.711       21.722      858.750
06/03/2014  21:29:00     -136.912      -46.007        1.537      113.680      107.684       53.204    12923.051    11595.945     2830.701        2.410        1.367      144.436       57.923        0.161      344.655       21.626      858.785
06/03/2014  21:30:00      -91.628      -32.702       19.012      113.407       92.258       61.035    12861.198     8511.567     3725.306        1.746        1.255       97.289       51.981        0.285      344.642       21.606      858.789
06/03/2014  21:31:00     -241.816     -138.309       -5.480       86.787       87.432       57.332     7531.913     7644.355     3287.004        4.805        0.923      278.575       56.312        0.041      344.724       21.742      858.792
06/03/2014  21:32:00     -157.174      -52.157       -5.648       85.452       42.074       31.086     7302.029     1770.220      966.321        1.875        0.502      165.602       38.995        0.055      344.704       21.709      858.802
06/03/2014  21:33:00     -133.554      -30.990        5.360       82.054       59.825       34.144     6732.927     3579.056     1165.807        1.515        0.574      137.103       39.981        0.085      344.564       21.471      858.839
06/03/2014  21:34:00     -171.083        3.082       -9.480       48.647       55.474       33.423     2366.512     3077.397     1117.082        1.796        0.328      171.110       24.936        0.021      344.631       21.588      858.838
06/03/2014  21:35:00     -215.296      -84.887      -11.990      120.023       69.044       43.514    14405.553     4767.126     1893.427        3.738        1.053      231.426       43.130        0.035      344.579       21.494      858.854
06/03/2014  21:36:00     -209.183      -39.854       -4.366      109.373       84.739       44.816    11962.453     7180.687     2008.489        3.325        1.058      212.946       33.978        0.025      344.587       21.510      858.858
06/03/2014  21:37:00     -172.512      -42.762      -12.258       97.917       82.516       52.353     9587.832     6808.943     2740.864        2.543        0.957      177.733       50.517        0.081      344.626       21.577      858.854
06/03/2014  21:38:00     -318.253       18.470      -26.266       76.862       81.316       41.790     5907.807     6612.271     1746.417        5.829        0.713      318.789       41.326        0.017      344.610       21.547      858.877
06/03/2014  21:39:00     -182.066        2.001       -2.240       91.005       77.920       42.239     8281.909     6071.537     1784.100        2.464        0.807      182.077       31.643        0.030      344.548       21.442      858.892
06/03/2014  21:40:00     -247.573      -79.649        3.634      122.561       89.376       48.275    15021.153     7988.086     2330.466        4.649        1.267      260.070       46.397        0.032      344.546       21.439      858.897
06/03/2014  21:41:00     -281.294      -28.299      -11.069      102.168       91.801       56.080    10438.347     8427.500     3144.934        5.103        1.101      282.714       58.238        0.042      344.515       21.384      858.921
06/03/2014  21:42:00     -196.030      -20.988       -8.913       85.617       56.549       33.867     7330.219     3197.780     1146.990        2.531        0.584      197.151       37.806        0.037      344.479       21.325      858.943
06/03/2014  21:43:00     -148.080      -23.802      -11.500       32.815       40.274       20.826     1076.814     1622.031      433.736        1.288        0.157      149.981        5.768        0.001      344.488       21.344      858.962
06/03/2014  21:44:00     -159.275      -48.308       -3.991       39.426       37.241       24.136     1554.379     1386.926      582.556        1.562        0.176      166.440       24.081        0.021      344.437       21.258      858.975
06/03/2014  21:45:00     -118.387      -67.428        5.273       42.557       53.977       26.863     1811.109     2913.516      721.596        1.202        0.272      136.243       22.912        0.028      344.393       21.179      858.995
06/03/2014  21:46:00     -159.183      -41.950      -22.589       57.992       34.826       25.714     3363.068     1212.882      661.210        1.642        0.262      164.617       16.250        0.010      344.383       21.162      858.999
06/03/2014  21:47:00     -235.700       19.883      -18.889       63.749       56.815       38.790     4063.956     3227.991     1504.653        3.255        0.440      236.537       35.477        0.022      344.293       21.006      859.014
06/03/2014  21:48:00     -227.773       14.252      -27.252       49.596       64.014       28.424     2459.764     4097.805      807.898        3.009        0.368      228.218       22.017        0.009      344.275       20.974      859.028
06/03/2014  21:49:00     -185.660       -3.253      -12.768       77.410       51.077       41.849     5992.236     2608.864     1751.313        2.250        0.518      185.688       40.846        0.048      344.277       20.979      859.031
06/03/2014  21:50:00     -139.094       48.183      -18.903       48.866       53.110       26.748     2387.848     2820.639      715.435        1.397        0.296      147.203       22.778        0.024      344.306       21.029      859.044
06/03/2014  21:51:00     -136.206       57.883      -10.869       80.764       58.322       34.545     6522.853     3401.484     1193.391        1.657        0.556      147.995       42.429        0.082      344.298       21.015      859.064
06/03/2014  21:52:00     -132.471       -9.549      -13.258       61.360       73.254       42.383     3765.035     5366.130     1796.330        1.437        0.546      132.815       37.426        0.079      344.322       21.057      859.061
06/03/2014  21:53:00     -195.297       16.778      -30.667      105.164      110.658       54.041    11059.517    12245.194     2920.457        3.279        1.311      196.017       38.040        0.038      344.392       21.176      859.056
06/03/2014  21:54:00     -282.533      -66.677       -3.917      122.986      103.557       61.540    15125.465    10724.065     3787.145        5.696        1.482      290.294       55.550        0.037      344.445       21.266      859.073
06/03/2014  21:55:00     -311.591      -54.683      -12.897      116.080      102.078       56.377    13474.640    10419.919     3178.381        6.365        1.354      316.353       57.099        0.033      344.527       21.406      859.095
06/03/2014  21:56:00     -307.450      -56.597       -4.667      139.894      107.275       63.259    19570.415    11508.018     4001.757        6.641        1.754      312.616       70.837        0.051      344.500       21.358      859.094
06/03/2014  21:57:00     -361.996       -9.092      -18.906      110.491       97.683       55.408    12208.218     9541.955     3069.999        7.815        1.241      362.111       56.184        0.024      344.530       21.411      859.090
06/03/2014  21:58:00     -331.771      -40.657      -14.627      118.292       94.288       57.438    13993.044     8890.151     3299.146        6.906        1.309      334.253       59.326        0.032      344.533       21.416      859.100
06/03/2014  21:59:00     -257.400      -45.729       -4.734      131.213       72.870       53.589    17216.910     5310.040     2871.763        4.688        1.270      261.430       62.868        0.058      344.480       21.326      859.103
06/03/2014  22:00:00     -347.480      -99.594       -4.348      116.482      113.391       70.693    13568.172    12857.508     4997.556        8.105        1.571      361.471       61.200        0.029      344.445       21.266      859.112
06/03/2014  22:01:00     -308.219     -120.269      -14.376      143.366      100.771       54.642    20553.828    10154.699     2985.740        7.168        1.685      330.853       60.699        0.034      344.479       21.322      859.119
06/03/2014  22:02:00     -205.108      -80.400       20.800      174.600      129.618       83.586    30485.244    16800.831     6986.654        5.161        2.714      220.303      101.952        0.214      344.372       21.142      859.127
06/03/2014  22:03:00     -204.692      -53.055       -4.215      152.771       96.639       66.353    23339.101     9339.014     4402.696        4.090        1.854      211.456       79.015        0.140      344.354       21.112      859.145
06/03/2014  22:04:00     -229.498      -53.212       -9.461      119.191      123.382       58.465    14206.460    15223.134     3418.206        4.421        1.642      235.586       42.576        0.033      344.432       21.243      859.141
06/03/2014  22:05:00     -209.576     -103.427       -3.695      116.700      115.010       64.164    13618.964    13227.193     4116.992        4.279        1.548      233.707       69.749        0.089      344.409       21.204      859.137
06/03/2014  22:06:00     -285.232     -105.731      -14.559      138.219      126.099       76.412    19104.555    15901.076     5838.752        6.679        2.042      304.198       82.823        0.074      344.406       21.199      859.130
06/03/2014  22:07:00     -319.212     -134.937      -16.553      167.438      111.623       59.030    28035.618    12459.654     3484.505        8.217        2.199      346.560       73.885        0.045      344.459       21.289      859.111
06/03/2014  22:08:00     -272.133     -148.828        0.194      189.472      135.164       77.891    35899.606    18269.380     6066.958        7.821        3.012      310.171       86.915        0.079      344.425       21.232      859.098
06/03/2014  22:09:00     -227.490      -64.747        9.620      124.303      140.184       69.609    15451.228    19651.461     4845.428        4.798        1.997      236.524       74.310        0.099      344.372       21.142      859.094
06/03/2014  22:10:00     -305.476     -100.062      -30.061      150.549      105.872       76.162    22664.902    11208.885     5800.630        7.195        1.984      321.446       80.632        0.063      344.417       21.216      859.083
06/03/2014  22:11:00     -252.327       -2.137        3.835      180.482      117.196       79.043    32573.644    13734.904     6247.768        5.811        2.628      252.336       85.550        0.115      344.334       21.077      859.085
06/03/2014  22:12:00     -206.563     -104.515        7.531      126.833      126.589       65.293    16086.522    16024.851     4263.145        4.500        1.819      231.499       68.434        0.087      344.376       21.148      859.088
06/03/2014  22:13:00     -263.687     -123.836        9.051      137.960      117.558       72.284    19032.875    13819.820     5224.992        6.151        1.904      291.318       78.836        0.073      344.346       21.097      859.076
06/03/2014  22:14:00     -262.566     -132.235      -19.326      134.276       82.860       51.861    18029.912     6865.715     2689.575        5.719        1.379      293.985       54.487        0.034      344.374       21.145      859.084
06/03/2014  22:15:00     -411.774      -80.724      -16.075      186.592       99.402       70.025    34816.482     9880.699     4903.512       11.296        2.480      419.612       76.068        0.033      344.382       21.160      859.077
06/03/2014  22:16:00     -224.245      -89.019       -4.892      116.044      104.573       56.392    13466.257    10935.544     3180.017        4.290        1.379      241.268       54.324        0.051      344.293       21.006      859.075
06/03/2014  22:17:00     -260.345      -70.786       -5.443      138.811      124.894       62.965    19268.544    15598.429     3964.577        5.582        1.942      269.797       60.053        0.050      344.286       20.992      859.090
06/03/2014  22:18:00     -290.837     -110.733       -8.659      136.019      117.405       55.392    18501.226    13783.903     3068.260        6.613        1.768      311.204       58.145        0.035      344.277       20.978      859.095
06/03/2014  22:19:00     -303.858     -120.771      -14.118      157.537      128.732       80.008    24818.043    16571.979     6401.355        7.744        2.390      326.979       84.904        0.067      344.272       20.971      859.053
06/03/2014  22:20:00     -289.170      -72.623        6.081      220.989      130.050       81.993    48836.174    16912.901     6722.775        8.069        3.624      298.150       94.241        0.100      344.268       20.964      859.065
06/03/2014  22:21:00     -272.993      -80.204       -4.017      129.452      103.249       66.961    16757.850    10660.454     4483.818        5.643        1.595      284.530       71.938        0.064      344.268       20.963      859.073
06/03/2014  22:22:00     -233.266     -105.694        1.596      118.541      113.400       60.562    14052.022    12859.650     3667.699        4.808        1.529      256.094       55.513        0.047      344.240       20.916      859.084
06/03/2014  22:23:00     -252.036     -120.699       -0.514      178.177      113.119       70.789    31747.050    12795.923     5011.110        6.381        2.478      279.446       87.746        0.099      344.196       20.841      859.072
06/03/2014  22:24:00     -301.547      -80.672       -4.725      146.525      103.249       60.753    21469.493    10660.298     3690.967        6.663        1.791      312.151       67.180        0.046      344.170       20.796      859.094
06/03/2014  22:25:00     -260.733      -96.347        4.160      126.329      102.807       63.228    15958.893    10569.190     3997.823        5.390        1.526      277.965       69.173        0.062      344.157       20.773      859.093
06/03/2014  22:26:00     -235.651      -45.979      -17.800      127.408      109.428       56.864    16232.842    11974.528     3233.538        4.470        1.572      240.095       65.343        0.074      344.135       20.737      859.119
06/03/2014  22:27:00     -317.993     -129.932      -11.495      138.702      129.656       73.944    19238.206    16810.567     5467.771        7.982        2.076      343.514       69.088        0.040      344.131       20.729      859.122
06/03/2014  22:28:00     -315.463     -128.364      -18.751      167.693      148.647       81.136    28120.915    22095.939     6583.031        8.656        2.840      340.579       88.909        0.068      344.093       20.665      859.136
06/03/2014  22:29:00     -343.642      -19.598      -14.366      176.096       93.844       57.166    31009.836     8806.784     3267.902        8.087        2.154      344.200       71.400        0.043      344.062       20.611      859.156
06/03/2014  22:30:00     -378.634     -112.396      -23.512      199.684      152.772       74.162    39873.530    23339.393     5500.013       11.262        3.436      394.964       85.167        0.046      344.087       20.656      859.156
06/03/2014  22:31:00     -285.146      -31.625       -2.308      158.944       96.249       68.075    25263.158     9263.954     4634.146        6.073        1.958      286.894       67.954        0.056      344.060       20.608      859.168
06/03/2014  22:32:00     -329.409      -50.639      -11.196      115.474      118.689       68.838    13334.346    14087.172     4738.652        7.167        1.608      333.279       68.520        0.042      344.040       20.574      859.193
06/03/2014  22:33:00     -208.083      -91.197      -10.173      116.427       71.562       44.684    13555.188     5121.151     1996.653        3.619        1.034      227.190       53.908        0.056      344.004       20.512      859.199
06/03/2014  22:34:00     -205.313      -21.230      -11.389      122.189      107.164       60.264    14930.234    11484.019     3631.713        3.638        1.502      206.407       64.765        0.098      343.964       20.445      859.219
06/03/2014  22:35:00     -233.031      -22.916       -6.805       98.605       88.044       57.239     9722.967     7751.796     3276.358        3.781        1.038      234.155       54.146        0.053      343.916       20.361      859.221
06/03/2014  22:36:00     -164.487      -33.478        4.261       84.267       78.955       40.956     7101.002     6233.927     1677.370        2.160        0.751      167.859       42.140        0.063      343.925       20.378      859.226
06/03/2014  22:37:00     -328.997      -48.620       -7.205      172.899      116.278       68.592    29894.085    13520.618     4704.891        7.938        2.406      332.570       72.327        0.047      343.957       20.433      859.236
06/03/2014  22:38:00     -182.232      -10.811       -1.379       91.266       77.659       46.249     8329.558     6030.966     2139.007        2.491        0.825      182.552       49.238        0.073      343.873       20.287      859.250
06/03/2014  22:39:00     -280.363      -20.691      -11.667       92.677      104.995       44.747     8589.107    11023.856     2002.304        5.039        1.081      281.126       33.829        0.014      343.936       20.395      859.252
06/03/2014  22:40:00     -151.936      -40.562        0.617      138.410       88.194       48.227    19157.373     7778.167     2325.834        2.699        1.463      157.257       54.942        0.122      343.834       20.224      859.258
06/03/2014  22:41:00     -214.593     -114.680       -0.536      102.211       87.241       48.318    10447.129     7610.922     2334.630        3.979        1.020      243.313       41.222        0.029      343.813       20.187      859.262
06/03/2014  22:42:00     -222.812      -73.608        5.862      155.891      103.524       61.229    24302.158    10717.123     3748.935        4.693        1.938      234.655       71.942        0.094      343.777       20.126      859.261
06/03/2014  22:43:00     -282.643       57.751      -27.768      117.628       95.773       51.292    13836.357     9172.436     2630.864        5.481        1.282      288.483       44.141        0.023      343.827       20.210      859.272
06/03/2014  22:44:00     -242.585      -24.129      -15.475      117.325       74.631       54.967    13765.162     5569.740     3021.354        4.101        1.118      243.782       65.407        0.072      343.807       20.177      859.271
06/03/2014  22:45:00     -305.072       -0.934      -24.848      119.567       94.143       46.621    14296.288     8862.852     2173.535        5.950        1.267      305.073       46.962        0.024      343.784       20.137      859.254
06/03/2014  22:46:00     -313.501      -51.820      -30.857      135.257      123.400       61.499    18294.402    15227.657     3782.179        6.960        1.865      317.755       65.645        0.043      343.791       20.148      859.257
06/03/2014  22:47:00     -204.549      -44.098       -0.759      153.181       84.788       48.622    23464.277     7189.089     2364.139        3.839        1.651      209.249       61.080        0.085      343.666       19.937      859.256
06/03/2014  22:48:00     -313.817      -43.471      -14.429      126.375       99.013       65.470    15970.555     9803.512     4286.324        6.531        1.503      316.813       73.073        0.053      343.739       20.060      859.263
06/03/2014  22:49:00     -375.787      -53.949      -20.190      142.319      103.875       58.340    20254.736    10790.023     3403.594        8.948        1.722      379.640       70.313        0.034      343.775       20.121      859.274
06/03/2014  22:50:00     -318.866     -107.580      -11.062       99.088      112.856       62.357     9818.511    12736.509     3888.399        6.990        1.322      336.525       48.843        0.021      343.767       20.107      859.291
06/03/2014  22:51:00     -281.645      -28.935      -17.409       95.791       80.842       50.364     9175.940     6535.350     2536.489        4.935        0.912      283.128       49.546        0.031      343.732       20.047      859.304
06/03/2014  22:52:00     -236.431      -20.794      -25.201       82.410       68.608       46.321     6791.428     4707.006     2145.611        3.530        0.682      237.344       39.225        0.027      343.707       20.005      859.318
06/03/2014  22:53:00     -138.883       66.171      -15.576       80.342       76.471       45.168     6454.818     5847.745     2040.180        1.912        0.717      153.841       21.229        0.019      343.607       19.836      859.337
06/03/2014  22:54:00     -147.460      154.619      -27.686       56.595      108.009       46.117     3202.991    11665.844     2126.733        3.170        0.850      213.662       51.633        0.058      343.600       19.824      859.362
06/03/2014  22:55:00     -158.960       71.203      -20.255       90.655      108.706       43.574     8218.311    11816.954     1898.725        2.634        1.097      174.179       41.813        0.058      343.591       19.808      859.358
06/03/2014  22:56:00     -197.166      162.747      -49.624       64.997      106.637       42.363     4224.557    11371.488     1794.585        4.260        0.870      255.657       45.116        0.031      343.633       19.877      859.360
06/03/2014  22:57:00     -102.232       70.080       -9.423       73.702       75.318       47.511     5431.929     5672.872     2257.285        1.440        0.668      123.946       49.385        0.159      343.521       19.692      859.344
06/03/2014  22:58:00     -160.907      109.676      -32.894       74.125       46.643       29.599     5494.501     2175.576      876.125        2.377        0.427      194.730       19.728        0.010      343.563       19.760      859.358
06/03/2014  22:59:00     -179.981       90.092      -16.614       90.299       72.789       41.276     8153.932     5298.294     1703.733        2.797        0.758      201.270       43.598        0.047      343.527       19.701      859.351
06/03/2014  23:00:00     -132.995       69.423      -10.154       65.747       74.508       32.952     4322.660     5551.438     1085.811        1.678        0.548      150.024       27.484        0.034      343.529       19.703      859.340
06/03/2014  23:01:00     -145.306       26.776       -4.242       80.288       65.563       49.405     6446.222     4298.570     2440.863        1.751        0.659      147.752       53.109        0.129      343.504       19.661      859.327
06/03/2014  23:02:00     -135.824       58.641      -12.446       73.507      108.965       39.097     5403.340    11873.347     1528.551        2.042        0.940      147.942       40.725        0.076      343.442       19.555      859.339
06/03/2014  23:03:00     -131.694        2.462       -2.861       64.203       64.859       42.191     4122.053     4206.633     1780.111        1.373        0.505      131.717       40.319        0.094      343.439       19.552      859.337
06/03/2014  23:04:00     -163.649      -67.492       -4.030       84.243       69.143       42.412     7096.935     4780.733     1798.786        2.251        0.684      177.020       37.210        0.044      343.375       19.440      859.329
06/03/2014  23:05:00     -182.063      -49.558      -11.099       63.592       66.001       27.506     4043.912     4356.169      756.588        2.244        0.458      188.688       22.810        0.015      343.475       19.610      859.316
06/03/2014  23:06:00     -127.944      -15.337       -9.336       55.304       60.164       22.710     3058.576     3619.736      515.728        1.194        0.360      128.860       15.002        0.014      343.448       19.565      859.305
06/03/2014  23:07:00      -59.837      -11.678       -5.806       70.633       38.619       28.934     4988.993     1491.464      837.203        0.553        0.366       60.965       28.370        0.217      343.433       19.540      859.292
06/03/2014  23:08:00     -121.463      -22.197       -3.780       59.969       32.984       32.896     3596.306     1087.930     1082.148        1.051        0.288      123.475       36.612        0.088      343.310       19.331      859.293
06/03/2014  23:09:00      -77.032      -20.191       13.442       56.397       48.919       32.718     3180.677     2393.117     1070.491        0.658        0.332       79.634       34.429        0.187      343.209       19.160      859.300
06/03/2014  23:10:00     -220.179      -53.330      -23.671       44.347       36.975       28.313     1966.691     1367.180      801.626        2.801        0.207      226.546       23.300        0.011      343.286       19.285      859.307
06/03/2014  23:11:00     -217.996      -64.222      -26.659       52.140       59.961       38.616     2718.595     3595.315     1491.228        3.008        0.390      227.259       19.278        0.007      343.273       19.263      859.317
06/03/2014  23:12:00     -265.035      -81.306      -33.653       91.677       68.519       45.296     8404.713     4694.868     2051.731        4.657        0.758      277.226       45.715        0.027      343.273       19.263      859.309
06/03/2014  23:13:00     -279.457      -64.697      -27.837       82.742       55.396       41.983     6846.192     3068.674     1762.595        4.736        0.584      286.848       42.424        0.022      343.200       19.141      859.316
06/03/2014  23:14:00     -238.568      -62.219      -23.764       78.090       85.335       41.524     6098.006     7282.066     1724.237        3.822        0.755      246.548       29.267        0.014      343.086       18.945      859.337
06/03/2014  23:15:00     -188.314      -77.336       -2.360       98.465       71.131       44.903     9695.273     5059.572     2016.255        2.911        0.839      203.576       40.151        0.039      343.156       19.067      859.352
06/03/2014  23:16:00     -197.440      -35.801       -6.416       80.561       66.111       37.266     6490.123     4370.663     1388.724        2.628        0.612      200.660       38.822        0.037      343.145       19.048      859.361
06/03/2014  23:17:00     -203.325        4.517      -14.618      103.796       75.378       44.219    10773.521     5681.768     1955.300        2.999        0.921      203.375       44.318        0.047      343.135       19.030      859.384
06/03/2014  23:18:00     -221.384      -42.202      -13.197       92.328       65.898       43.505     8524.391     4342.598     1892.648        3.286        0.738      225.370       45.902        0.041      343.251       19.227      859.387
06/03/2014  23:19:00     -120.209      -23.746        3.406       97.919       76.024       41.430     9588.215     5779.696     1716.417        1.605        0.854      122.532       42.182        0.119      343.212       19.162      859.381
06/03/2014  23:20:00     -145.636      -66.038       -2.052       79.008       70.245       48.697     6242.187     4934.373     2371.398        1.956        0.677      159.909       49.045        0.094      343.251       19.230      859.366
06/03/2014  23:21:00     -161.562      -88.880        3.329       99.799       62.067       47.183     9959.900     3852.253     2226.260        2.502        0.802      184.396       56.255        0.093      343.291       19.297      859.357
06/03/2014  23:22:00     -165.759      -55.874       -3.404       88.711       80.373       43.600     7869.697     6459.790     1901.001        2.342        0.812      174.923       43.718        0.062      343.417       19.513      859.345
06/03/2014  23:23:00     -146.903      -58.579       -2.144       57.441       49.347       36.500     3299.497     2435.150     1332.244        1.604        0.353      158.152       32.471        0.042      343.426       19.528      859.373
06/03/2014  23:24:00      -96.804      -29.343        9.792       67.770       67.299       32.057     4592.834     4529.129     1027.636        1.024        0.507      101.153       38.701        0.146      343.391       19.469      859.397
06/03/2014  23:25:00     -185.313      -49.869      -19.691       67.219       77.645       33.930     4518.414     6028.696     1151.250        2.445        0.585      191.905       25.532        0.018      343.654       19.916      859.440
06/03/2014  23:26:00      -47.846       -7.809        9.122       37.159       42.431       24.342     1380.758     1800.398      592.538        0.310        0.189       48.479       17.307        0.127      343.466       19.596      859.482
06/03/2014  23:27:00      -30.925       64.250       12.791       63.796       51.884       40.958     4069.879     2691.959     1677.572        0.684        0.422       71.305       24.762        0.121      343.506       19.665      859.523
06/03/2014  23:28:00      -32.269      120.253      -19.823      103.203       55.871       37.554    10650.873     3121.550     1410.298        1.554        0.759      124.508       28.056        0.051      343.525       19.697      859.534
06/03/2014  23:29:00        7.045      202.067      -31.453       36.212       57.100       25.174     1311.325     3260.393      633.721        2.354        0.260      202.190       26.400        0.017      343.375       19.440      859.543
06/03/2014  23:30:00       -3.548      147.872      -17.649       44.823       56.829       26.030     2009.115     3229.488      677.560        1.405        0.296      147.914       25.437        0.030      343.240       19.212      859.545
06/03/2014  23:31:00       19.552       98.753       -7.580       51.159       61.342       34.318     2617.258     3762.886     1177.725        0.887        0.378      100.669       39.754        0.156      343.183       19.115      859.544
06/03/2014  23:32:00      -95.159       99.672       -2.851       63.394       56.357       46.241     4018.804     3176.094     2138.216        1.416        0.467      137.803       40.486        0.086      343.190       19.125      859.560
06/03/2014  23:33:00      -75.802       78.316      -23.389       34.650       41.412       19.334     1200.622     1714.937      373.821        0.786        0.164      108.992       22.349        0.042      343.273       19.269      859.583
06/03/2014  23:34:00      -67.984       23.213      -18.153       17.975       25.073       11.481      323.111      628.680      131.804        0.329        0.054       71.838        7.444        0.011      343.236       19.208      859.583
06/03/2014  23:35:00     -133.802       68.745      -23.623       39.480       36.635       21.991     1558.684     1342.117      483.599        1.328        0.169      150.429       17.647        0.014      343.376       19.444      859.573
06/03/2014  23:36:00     -138.476       10.368       -9.481       35.692       33.223       20.881     1273.885     1103.797      436.005        1.109        0.141      138.864       20.320        0.021      343.304       19.323      859.565
06/03/2014  23:37:00     -129.500        3.837      -17.829       26.740       27.549       18.494      715.048      758.921      342.015        0.946        0.091      129.556       12.272        0.009      343.328       19.361      859.549
06/03/2014  23:38:00     -118.243      -52.338      -13.165       41.100       29.910       18.256     1689.207      894.618      333.296        0.991        0.146      129.309        8.238        0.004      343.318       19.344      859.547
06/03/2014  23:39:00      -99.645      -55.665       -2.000       55.410       40.588       25.518     3070.314     1647.360      651.172        0.920        0.268      114.140       21.375        0.035      343.299       19.314      859.557
06/03/2014  23:40:00     -116.969      -49.524       -8.530       74.896       44.841       16.854     5609.369     2010.737      284.068        1.205        0.395      127.021       19.217        0.023      343.278       19.276      859.561
06/03/2014  23:41:00     -137.296      -33.743       -0.353       86.053       43.484       26.062     7405.073     1890.885      679.207        1.498        0.499      141.381       30.065        0.045      343.213       19.164      859.552
06/03/2014  23:42:00     -225.734      -41.366      -22.991       65.017       56.564       32.748     4227.244     3199.468     1072.405        3.085        0.425      229.493       31.777        0.019      343.211       19.160      859.540
06/03/2014  23:43:00     -220.528      -58.170      -10.224      103.057       79.580       42.865    10620.761     6332.981     1837.449        3.545        0.940      228.071       45.264        0.039      343.223       19.180      859.518
06/03/2014  23:44:00     -197.673      -51.680      -13.834       69.656       68.940       39.455     4851.940     4752.738     1556.674        2.655        0.558      204.317       39.422        0.037      343.201       19.143      859.503
06/03/2014  23:45:00     -158.522      -60.792       -5.537       78.576       53.923       37.752     6174.208     2907.742     1425.208        1.968        0.525      169.779       24.050        0.020      343.155       19.066      859.492
06/03/2014  23:46:00     -141.064      -76.681       -9.107       86.012       53.627       29.685     7398.019     2875.852      881.227        1.851        0.558      160.559       39.042        0.059      343.136       19.034      859.490
06/03/2014  23:47:00     -245.996      -62.273        1.623       95.727       75.802       41.602     9163.621     5745.990     1730.708        4.051        0.832      253.755       36.790        0.021      343.152       19.058      859.479
06/03/2014  23:48:00     -136.700      -67.104       -7.308       80.908       43.253       38.745     6546.099     1870.849     1501.186        1.658        0.496      152.282       46.710        0.094      343.108       18.986      859.466
06/03/2014  23:49:00     -122.174      -14.430        4.593       94.477       67.651       37.864     8925.978     4576.635     1433.674        1.504        0.747      123.023       42.263        0.118      343.033       18.859      859.464
06/03/2014  23:50:00     -169.884      -86.296      -10.804       93.874       88.082       41.895     8812.289     7758.472     1755.185        2.737        0.916      190.546       53.792        0.080      343.122       19.010      859.491
06/03/2014  23:51:00     -179.693       55.148      -15.877       99.106       52.077       40.789     9821.982     2711.989     1663.702        2.489        0.710      187.965       49.085        0.068      343.096       18.966      859.506
06/03/2014  23:52:00     -112.033       18.053       -6.352       54.577       36.092       24.704     2978.662     1302.603      610.279        0.890        0.245      113.478       28.385        0.063      343.144       19.048      859.536
06/03/2014  23:53:00     -159.729      -57.380      -18.746       54.923       70.728       30.356     3016.503     5002.465      921.466        1.905        0.447      169.723       26.520        0.024      343.163       19.080      859.545
06/03/2014  23:54:00     -159.806      -41.735       -9.479       46.582       64.618       31.270     2169.923     4175.522      977.801        1.734        0.366      165.166       25.772        0.024      343.153       19.061      859.563
06/03/2014  23:55:00     -203.059       28.479      -20.493       97.159       90.075       35.002     9439.877     8113.498     1225.106        3.062        0.939      205.047       37.442        0.033      343.156       19.067      859.594
06/03/2014  23:56:00      -96.414       -1.321       -1.736       49.463       47.970       24.489     2446.554     2301.144      599.694        0.732        0.267       96.423       21.956        0.052      343.130       19.024      859.610
06/03/2014  23:57:00     -132.456      -12.833      -11.752       44.327       43.787       25.081     1964.891     1917.296      629.057        1.118        0.226      133.076       16.859        0.016      343.127       19.020      859.613
06/03/2014  23:58:00     -172.843       18.850      -10.784       73.206       46.574       33.974     5359.073     2169.126     1154.255        1.951        0.434      173.868       34.734        0.040      343.111       18.991      859.613
06/03/2014  23:59:00     -187.099       35.445      -17.098       40.469       51.670       26.735     1637.779     2669.818      714.747        2.079        0.251      190.427       20.433        0.012      343.050       18.886      859.623
